Terminal Aerodrome Forecast
Issued by NWS Quad Cities IA IL

Home | Current Version | Previous Version | Text Only | Print | Product List | Glossary On
Versions: 1 2 3 4 5 6 7 8 9 10 11 12 13 14 15 16
000
FTUS43 KDVN 031141
TAFDBQ
TAF
KDBQ 031141Z 0312/0412 17010KT P6SM SCT090 BKN150
     FM031500 16011G16KT P6SM VCSH BKN070
     FM031700 19015G21KT P6SM SCT080 BKN150
     FM040000 20012KT P6SM BKN090
     FM040300 21009KT 6SM -RA BR VCTS SCT050 BKN070CB
     FM040900 28008KT 5SM -RA BR VCTS OVC035CB=

USA.gov is the U.S. government's official web portal to all federal, state and local government web resources and services.